sensor_id;sensor_type;location;lat;lon;timestamp;P1;durP1;ratioP1;P2;durP2;ratioP2
24681;SDS011;12802;53.390;-2.328;2022-09-09T00:03:53;4.72;;;1.98;;
24681;SDS011;12802;53.390;-2.328;2022-09-09T00:06:27;3.13;;;1.80;;
24681;SDS011;12802;53.390;-2.328;2022-09-09T00:09:01;9.82;;;2.38;;
24681;SDS011;12802;53.390;-2.328;2022-09-09T00:11:40;3.75;;;2.03;;
24681;SDS011;12802;53.390;-2.328;2022-09-09T00:14:39;5.43;;;2.30;;
24681;SDS011;12802;53.390;-2.328;2022-09-09T00:17:36;2.55;;;1.75;;
24681;SDS011;12802;53.390;-2.328;2022-09-09T00:20:11;3.50;;;2.25;;
24681;SDS011;12802;53.390;-2.328;2022-09-09T00:23:00;5.07;;;2.05;;
24681;SDS011;12802;53.390;-2.328;2022-09-09T00:31:47;4.50;;;2.70;;
24681;SDS011;12802;53.390;-2.328;2022-09-09T00:34:14;4.35;;;2.85;;
24681;SDS011;12802;53.390;-2.328;2022-09-09T00:36:43;6.13;;;2.70;;
24681;SDS011;12802;53.390;-2.328;2022-09-09T00:39:13;6.05;;;3.00;;
24681;SDS011;12802;53.390;-2.328;2022-09-09T00:44:33;9.10;;;2.92;;
24681;SDS011;12802;53.390;-2.328;2022-09-09T00:57:45;4.20;;;3.13;;
24681;SDS011;12802;53.390;-2.328;2022-09-09T01:05:55;5.38;;;2.90;;
24681;SDS011;12802;53.390;-2.328;2022-09-09T01:11:25;4.63;;;2.60;;
24681;SDS011;12802;53.390;-2.328;2022-09-09T01:14:13;5.55;;;2.97;;
24681;SDS011;12802;53.390;-2.328;2022-09-09T01:16:57;4.13;;;2.72;;
24681;SDS011;12802;53.390;-2.328;2022-09-09T01:19:31;4.50;;;2.40;;
24681;SDS011;12802;53.390;-2.328;2022-09-09T01:28:03;10.95;;;3.67;;
24681;SDS011;12802;53.390;-2.328;2022-09-09T01:30:37;8.30;;;3.22;;
24681;SDS011;12802;53.390;-2.328;2022-09-09T01:33:07;4.68;;;3.60;;
24681;SDS011;12802;53.390;-2.328;2022-09-09T01:35:51;8.05;;;3.45;;
24681;SDS011;12802;53.390;-2.328;2022-09-09T01:38:23;9.73;;;3.88;;
24681;SDS011;12802;53.390;-2.328;2022-09-09T01:40:51;13.35;;;3.50;;
24681;SDS011;12802;53.390;-2.328;2022-09-09T01:43:20;13.73;;;5.38;;
24681;SDS011;12802;53.390;-2.328;2022-09-09T01:45:48;8.73;;;3.70;;
24681;SDS011;12802;53.390;-2.328;2022-09-09T01:48:17;5.32;;;4.35;;
24681;SDS011;12802;53.390;-2.328;2022-09-09T01:50:50;7.50;;;3.58;;
24681;SDS011;12802;53.390;-2.328;2022-09-09T01:53:17;7.13;;;3.80;;
24681;SDS011;12802;53.390;-2.328;2022-09-09T02:04:52;5.70;;;3.85;;
24681;SDS011;12802;53.390;-2.328;2022-09-09T02:07:01;4.18;;;3.22;;
24681;SDS011;12802;53.390;-2.328;2022-09-09T02:09:29;5.68;;;4.18;;
24681;SDS011;12802;53.390;-2.328;2022-09-09T02:11:58;6.93;;;4.13;;
24681;SDS011;12802;53.390;-2.328;2022-09-09T02:14:41;4.40;;;3.58;;
24681;SDS011;12802;53.390;-2.328;2022-09-09T02:17:14;5.57;;;3.92;;
24681;SDS011;12802;53.390;-2.328;2022-09-09T02:20:01;12.32;;;4.10;;
24681;SDS011;12802;53.390;-2.328;2022-09-09T02:22:59;6.63;;;4.05;;
24681;SDS011;12802;53.390;-2.328;2022-09-09T02:25:28;5.40;;;3.80;;
24681;SDS011;12802;53.390;-2.328;2022-09-09T02:28:06;6.68;;;4.65;;
24681;SDS011;12802;53.390;-2.328;2022-09-09T02:30:34;6.20;;;3.72;;
24681;SDS011;12802;53.390;-2.328;2022-09-09T02:33:03;8.85;;;3.58;;
24681;SDS011;12802;53.390;-2.328;2022-09-09T02:35:41;8.45;;;4.22;;
24681;SDS011;12802;53.390;-2.328;2022-09-09T02:38:10;15.05;;;5.05;;
24681;SDS011;12802;53.390;-2.328;2022-09-09T02:40:42;10.05;;;5.05;;
24681;SDS011;12802;53.390;-2.328;2022-09-09T02:43:08;9.57;;;5.47;;
24681;SDS011;12802;53.390;-2.328;2022-09-09T02:48:32;7.68;;;4.75;;
24681;SDS011;12802;53.390;-2.328;2022-09-09T02:51:22;11.98;;;6.10;;
24681;SDS011;12802;53.390;-2.328;2022-09-09T02:59:37;13.43;;;7.90;;
24681;SDS011;12802;53.390;-2.328;2022-09-09T03:02:04;15.68;;;6.95;;
24681;SDS011;12802;53.390;-2.328;2022-09-09T03:04:32;14.98;;;6.75;;
24681;SDS011;12802;53.390;-2.328;2022-09-09T03:06:58;14.63;;;7.78;;
24681;SDS011;12802;53.390;-2.328;2022-09-09T03:09:24;10.07;;;7.07;;
24681;SDS011;12802;53.390;-2.328;2022-09-09T03:11:52;9.77;;;5.93;;
24681;SDS011;12802;53.390;-2.328;2022-09-09T03:14:19;10.68;;;7.03;;
24681;SDS011;12802;53.390;-2.328;2022-09-09T03:16:49;10.93;;;6.93;;
24681;SDS011;12802;53.390;-2.328;2022-09-09T03:19:16;12.50;;;6.53;;
24681;SDS011;12802;53.390;-2.328;2022-09-09T03:21:44;10.18;;;7.00;;
24681;SDS011;12802;53.390;-2.328;2022-09-09T03:24:11;14.18;;;7.78;;
24681;SDS011;12802;53.390;-2.328;2022-09-09T03:26:37;14.55;;;6.80;;
24681;SDS011;12802;53.390;-2.328;2022-09-09T03:29:04;13.32;;;7.78;;
24681;SDS011;12802;53.390;-2.328;2022-09-09T03:31:32;8.00;;;5.50;;
24681;SDS011;12802;53.390;-2.328;2022-09-09T03:33:59;16.67;;;8.10;;
24681;SDS011;12802;53.390;-2.328;2022-09-09T03:36:28;22.35;;;9.95;;
24681;SDS011;12802;53.390;-2.328;2022-09-09T03:38:54;15.15;;;8.82;;
24681;SDS011;12802;53.390;-2.328;2022-09-09T03:41:22;15.07;;;8.88;;
24681;SDS011;12802;53.390;-2.328;2022-09-09T03:43:52;12.50;;;7.97;;
24681;SDS011;12802;53.390;-2.328;2022-09-09T03:46:20;15.07;;;8.73;;
24681;SDS011;12802;53.390;-2.328;2022-09-09T03:48:49;20.40;;;10.00;;
24681;SDS011;12802;53.390;-2.328;2022-09-09T03:51:17;19.05;;;9.73;;
24681;SDS011;12802;53.390;-2.328;2022-09-09T03:53:43;19.55;;;9.80;;
24681;SDS011;12802;53.390;-2.328;2022-09-09T03:56:09;19.95;;;10.93;;
24681;SDS011;12802;53.390;-2.328;2022-09-09T03:58:36;14.80;;;8.65;;
24681;SDS011;12802;53.390;-2.328;2022-09-09T04:01:11;22.67;;;11.65;;
24681;SDS011;12802;53.390;-2.328;2022-09-09T04:03:40;15.68;;;10.20;;
24681;SDS011;12802;53.390;-2.328;2022-09-09T04:06:07;17.98;;;11.00;;
24681;SDS011;12802;53.390;-2.328;2022-09-09T04:08:35;15.52;;;9.48;;
24681;SDS011;12802;53.390;-2.328;2022-09-09T04:11:03;19.15;;;9.95;;
24681;SDS011;12802;53.390;-2.328;2022-09-09T04:13:34;16.58;;;9.00;;
24681;SDS011;12802;53.390;-2.328;2022-09-09T04:16:07;19.63;;;10.40;;
24681;SDS011;12802;53.390;-2.328;2022-09-09T04:21:02;14.18;;;8.55;;
24681;SDS011;12802;53.390;-2.328;2022-09-09T04:23:30;20.80;;;9.05;;
24681;SDS011;12802;53.390;-2.328;2022-09-09T04:25:58;25.85;;;10.68;;
24681;SDS011;12802;53.390;-2.328;2022-09-09T04:28:26;16.05;;;8.57;;
24681;SDS011;12802;53.390;-2.328;2022-09-09T04:30:54;18.08;;;9.18;;
24681;SDS011;12802;53.390;-2.328;2022-09-09T04:33:25;14.45;;;9.05;;
24681;SDS011;12802;53.390;-2.328;2022-09-09T04:35:52;13.88;;;8.20;;
24681;SDS011;12802;53.390;-2.328;2022-09-09T04:38:19;16.20;;;8.93;;
24681;SDS011;12802;53.390;-2.328;2022-09-09T04:40:48;26.75;;;8.15;;
24681;SDS011;12802;53.390;-2.328;2022-09-09T04:43:16;12.07;;;8.38;;
24681;SDS011;12802;53.390;-2.328;2022-09-09T04:45:46;15.63;;;9.05;;
24681;SDS011;12802;53.390;-2.328;2022-09-09T04:48:13;16.25;;;8.07;;
24681;SDS011;12802;53.390;-2.328;2022-09-09T04:50:39;19.15;;;10.38;;
24681;SDS011;12802;53.390;-2.328;2022-09-09T04:53:06;14.32;;;8.43;;
24681;SDS011;12802;53.390;-2.328;2022-09-09T04:55:35;10.45;;;7.63;;
24681;SDS011;12802;53.390;-2.328;2022-09-09T04:58:04;15.73;;;8.75;;
24681;SDS011;12802;53.390;-2.328;2022-09-09T05:00:32;16.05;;;9.57;;
24681;SDS011;12802;53.390;-2.328;2022-09-09T05:03:03;16.83;;;9.57;;
24681;SDS011;12802;53.390;-2.328;2022-09-09T05:05:34;17.20;;;9.98;;
24681;SDS011;12802;53.390;-2.328;2022-09-09T05:08:02;19.80;;;9.07;;
24681;SDS011;12802;53.390;-2.328;2022-09-09T05:10:32;13.32;;;9.38;;
24681;SDS011;12802;53.390;-2.328;2022-09-09T05:12:59;12.05;;;8.77;;
24681;SDS011;12802;53.390;-2.328;2022-09-09T05:15:27;18.60;;;9.35;;
24681;SDS011;12802;53.390;-2.328;2022-09-09T05:17:56;14.07;;;8.93;;
24681;SDS011;12802;53.390;-2.328;2022-09-09T05:20:27;16.10;;;9.68;;
24681;SDS011;12802;53.390;-2.328;2022-09-09T05:22:54;15.70;;;9.00;;
24681;SDS011;12802;53.390;-2.328;2022-09-09T05:25:23;21.13;;;10.43;;
24681;SDS011;12802;53.390;-2.328;2022-09-09T05:27:52;17.33;;;9.90;;
24681;SDS011;12802;53.390;-2.328;2022-09-09T05:30:19;16.58;;;9.57;;
24681;SDS011;12802;53.390;-2.328;2022-09-09T05:32:45;18.23;;;9.48;;
24681;SDS011;12802;53.390;-2.328;2022-09-09T05:35:13;10.70;;;7.43;;
24681;SDS011;12802;53.390;-2.328;2022-09-09T05:37:38;14.10;;;8.05;;
24681;SDS011;12802;53.390;-2.328;2022-09-09T05:40:05;13.45;;;7.90;;
24681;SDS011;12802;53.390;-2.328;2022-09-09T05:42:31;23.13;;;8.57;;
24681;SDS011;12802;53.390;-2.328;2022-09-09T05:44:57;15.60;;;9.32;;
24681;SDS011;12802;53.390;-2.328;2022-09-09T05:47:24;17.98;;;9.52;;
24681;SDS011;12802;53.390;-2.328;2022-09-09T05:49:53;15.15;;;8.23;;
24681;SDS011;12802;53.390;-2.328;2022-09-09T05:52:20;19.40;;;10.23;;
24681;SDS011;12802;53.390;-2.328;2022-09-09T05:54:46;19.38;;;9.50;;
24681;SDS011;12802;53.390;-2.328;2022-09-09T05:57:11;16.00;;;8.77;;
24681;SDS011;12802;53.390;-2.328;2022-09-09T05:59:37;13.98;;;8.65;;
24681;SDS011;12802;53.390;-2.328;2022-09-09T06:02:03;14.95;;;9.02;;
24681;SDS011;12802;53.390;-2.328;2022-09-09T06:04:34;12.25;;;7.90;;
24681;SDS011;12802;53.390;-2.328;2022-09-09T06:07:00;15.48;;;9.20;;
24681;SDS011;12802;53.390;-2.328;2022-09-09T06:09:27;18.42;;;9.70;;
24681;SDS011;12802;53.390;-2.328;2022-09-09T06:11:54;18.02;;;8.55;;
24681;SDS011;12802;53.390;-2.328;2022-09-09T06:14:21;15.52;;;8.48;;
24681;SDS011;12802;53.390;-2.328;2022-09-09T06:16:48;12.40;;;8.10;;
24681;SDS011;12802;53.390;-2.328;2022-09-09T06:19:20;14.43;;;8.50;;
24681;SDS011;12802;53.390;-2.328;2022-09-09T06:21:46;12.10;;;8.02;;
24681;SDS011;12802;53.390;-2.328;2022-09-09T06:24:13;17.90;;;10.02;;
24681;SDS011;12802;53.390;-2.328;2022-09-09T06:26:42;13.95;;;8.68;;
24681;SDS011;12802;53.390;-2.328;2022-09-09T06:29:15;17.73;;;8.30;;
24681;SDS011;12802;53.390;-2.328;2022-09-09T06:31:41;20.23;;;8.93;;
24681;SDS011;12802;53.390;-2.328;2022-09-09T06:34:21;16.17;;;8.85;;
24681;SDS011;12802;53.390;-2.328;2022-09-09T06:36:56;13.48;;;8.02;;
24681;SDS011;12802;53.390;-2.328;2022-09-09T06:39:23;16.25;;;9.38;;
24681;SDS011;12802;53.390;-2.328;2022-09-09T06:41:49;15.05;;;9.15;;
24681;SDS011;12802;53.390;-2.328;2022-09-09T06:44:38;15.38;;;9.60;;
24681;SDS011;12802;53.390;-2.328;2022-09-09T06:47:07;15.38;;;8.48;;
24681;SDS011;12802;53.390;-2.328;2022-09-09T06:49:33;19.27;;;9.20;;
24681;SDS011;12802;53.390;-2.328;2022-09-09T06:52:03;13.30;;;8.70;;
24681;SDS011;12802;53.390;-2.328;2022-09-09T06:54:29;13.15;;;8.00;;
24681;SDS011;12802;53.390;-2.328;2022-09-09T06:56:55;18.05;;;8.98;;
24681;SDS011;12802;53.390;-2.328;2022-09-09T06:59:22;16.17;;;8.68;;
24681;SDS011;12802;53.390;-2.328;2022-09-09T07:01:50;13.50;;;8.13;;
24681;SDS011;12802;53.390;-2.328;2022-09-09T07:04:17;14.60;;;8.05;;
24681;SDS011;12802;53.390;-2.328;2022-09-09T07:06:44;14.50;;;8.27;;
24681;SDS011;12802;53.390;-2.328;2022-09-09T07:09:15;15.05;;;9.88;;
24681;SDS011;12802;53.390;-2.328;2022-09-09T07:11:45;15.93;;;7.82;;
24681;SDS011;12802;53.390;-2.328;2022-09-09T07:14:14;11.55;;;7.28;;
24681;SDS011;12802;53.390;-2.328;2022-09-09T07:16:44;21.70;;;8.95;;
24681;SDS011;12802;53.390;-2.328;2022-09-09T07:19:12;10.80;;;6.78;;
24681;SDS011;12802;53.390;-2.328;2022-09-09T07:21:40;22.58;;;7.32;;
24681;SDS011;12802;53.390;-2.328;2022-09-09T07:24:08;14.93;;;8.10;;
24681;SDS011;12802;53.390;-2.328;2022-09-09T07:26:36;13.70;;;7.18;;
24681;SDS011;12802;53.390;-2.328;2022-09-09T07:29:03;13.77;;;7.43;;
24681;SDS011;12802;53.390;-2.328;2022-09-09T07:31:31;18.75;;;8.05;;
24681;SDS011;12802;53.390;-2.328;2022-09-09T07:36:27;14.13;;;6.82;;
24681;SDS011;12802;53.390;-2.328;2022-09-09T07:38:56;13.75;;;6.95;;
24681;SDS011;12802;53.390;-2.328;2022-09-09T07:41:25;10.55;;;7.05;;
24681;SDS011;12802;53.390;-2.328;2022-09-09T07:43:54;14.45;;;7.05;;
24681;SDS011;12802;53.390;-2.328;2022-09-09T07:46:22;12.15;;;6.95;;
24681;SDS011;12802;53.390;-2.328;2022-09-09T07:48:50;12.18;;;6.00;;
24681;SDS011;12802;53.390;-2.328;2022-09-09T07:51:26;12.13;;;6.32;;
24681;SDS011;12802;53.390;-2.328;2022-09-09T07:53:56;12.32;;;7.10;;
24681;SDS011;12802;53.390;-2.328;2022-09-09T07:56:25;12.45;;;7.68;;
24681;SDS011;12802;53.390;-2.328;2022-09-09T07:58:53;10.85;;;6.43;;
24681;SDS011;12802;53.390;-2.328;2022-09-09T08:03:55;14.40;;;5.93;;
24681;SDS011;12802;53.390;-2.328;2022-09-09T08:06:34;16.27;;;7.10;;
24681;SDS011;12802;53.390;-2.328;2022-09-09T08:09:03;12.80;;;5.85;;
24681;SDS011;12802;53.390;-2.328;2022-09-09T08:11:31;9.85;;;5.43;;
24681;SDS011;12802;53.390;-2.328;2022-09-09T08:13:59;11.60;;;5.32;;
24681;SDS011;12802;53.390;-2.328;2022-09-09T08:16:26;10.13;;;6.18;;
24681;SDS011;12802;53.390;-2.328;2022-09-09T08:18:56;10.73;;;5.20;;
24681;SDS011;12802;53.390;-2.328;2022-09-09T08:21:26;18.70;;;4.80;;
24681;SDS011;12802;53.390;-2.328;2022-09-09T08:23:55;13.38;;;5.25;;
24681;SDS011;12802;53.390;-2.328;2022-09-09T08:26:24;8.98;;;4.63;;
24681;SDS011;12802;53.390;-2.328;2022-09-09T08:28:53;9.68;;;4.55;;
24681;SDS011;12802;53.390;-2.328;2022-09-09T08:31:23;6.45;;;3.97;;
24681;SDS011;12802;53.390;-2.328;2022-09-09T08:33:54;17.58;;;5.07;;
24681;SDS011;12802;53.390;-2.328;2022-09-09T08:36:21;6.88;;;4.10;;
24681;SDS011;12802;53.390;-2.328;2022-09-09T08:44:16;5.95;;;3.60;;
24681;SDS011;12802;53.390;-2.328;2022-09-09T08:58:18;12.93;;;4.10;;
24681;SDS011;12802;53.390;-2.328;2022-09-09T09:00:52;9.43;;;3.75;;
24681;SDS011;12802;53.390;-2.328;2022-09-09T09:11:25;5.70;;;3.72;;
24681;SDS011;12802;53.390;-2.328;2022-09-09T09:16:30;11.38;;;4.30;;
24681;SDS011;12802;53.390;-2.328;2022-09-09T09:19:03;16.08;;;3.92;;
24681;SDS011;12802;53.390;-2.328;2022-09-09T09:21:39;5.93;;;3.28;;
24681;SDS011;12802;53.390;-2.328;2022-09-09T09:24:09;5.82;;;3.80;;
24681;SDS011;12802;53.390;-2.328;2022-09-09T09:26:59;14.43;;;3.40;;
24681;SDS011;12802;53.390;-2.328;2022-09-09T09:29:43;7.13;;;3.65;;
24681;SDS011;12802;53.390;-2.328;2022-09-09T09:32:12;4.95;;;3.20;;
24681;SDS011;12802;53.390;-2.328;2022-09-09T09:34:48;9.00;;;3.10;;
24681;SDS011;12802;53.390;-2.328;2022-09-09T09:37:24;3.33;;;2.38;;
24681;SDS011;12802;53.390;-2.328;2022-09-09T09:39:56;7.22;;;2.60;;
24681;SDS011;12802;53.390;-2.328;2022-09-09T09:42:34;12.15;;;2.20;;
24681;SDS011;12802;53.390;-2.328;2022-09-09T09:45:07;5.82;;;2.33;;
24681;SDS011;12802;53.390;-2.328;2022-09-09T09:47:59;7.18;;;2.45;;
24681;SDS011;12802;53.390;-2.328;2022-09-09T09:50:30;3.45;;;1.60;;
24681;SDS011;12802;53.390;-2.328;2022-09-09T09:53:02;4.55;;;2.50;;
24681;SDS011;12802;53.390;-2.328;2022-09-09T09:55:32;3.85;;;1.80;;
24681;SDS011;12802;53.390;-2.328;2022-09-09T09:58:05;4.40;;;2.00;;
24681;SDS011;12802;53.390;-2.328;2022-09-09T10:00:37;4.35;;;1.95;;
24681;SDS011;12802;53.390;-2.328;2022-09-09T10:03:25;2.65;;;1.85;;
24681;SDS011;12802;53.390;-2.328;2022-09-09T10:05:54;2.50;;;1.60;;
24681;SDS011;12802;53.390;-2.328;2022-09-09T10:08:22;8.10;;;1.73;;
24681;SDS011;12802;53.390;-2.328;2022-09-09T10:29:22;7.90;;;2.13;;
24681;SDS011;12802;53.390;-2.328;2022-09-09T10:40:26;4.40;;;1.90;;
24681;SDS011;12802;53.390;-2.328;2022-09-09T10:48:36;3.03;;;1.63;;
24681;SDS011;12802;53.390;-2.328;2022-09-09T10:56:18;4.47;;;2.13;;
24681;SDS011;12802;53.390;-2.328;2022-09-09T10:58:54;7.30;;;2.00;;
24681;SDS011;12802;53.390;-2.328;2022-09-09T11:01:39;3.55;;;1.55;;
24681;SDS011;12802;53.390;-2.328;2022-09-09T11:04:15;7.13;;;1.60;;
24681;SDS011;12802;53.390;-2.328;2022-09-09T11:06:47;2.78;;;1.40;;
24681;SDS011;12802;53.390;-2.328;2022-09-09T11:09:18;6.22;;;1.42;;
24681;SDS011;12802;53.390;-2.328;2022-09-09T11:11:57;2.00;;;1.50;;
24681;SDS011;12802;53.390;-2.328;2022-09-09T11:14:34;4.68;;;1.63;;
24681;SDS011;12802;53.390;-2.328;2022-09-09T11:17:12;6.32;;;2.10;;
24681;SDS011;12802;53.390;-2.328;2022-09-09T11:19:42;3.60;;;1.45;;
24681;SDS011;12802;53.390;-2.328;2022-09-09T11:22:18;6.70;;;1.77;;
24681;SDS011;12802;53.390;-2.328;2022-09-09T11:24:49;10.57;;;2.05;;
24681;SDS011;12802;53.390;-2.328;2022-09-09T11:30:27;6.88;;;2.08;;
24681;SDS011;12802;53.390;-2.328;2022-09-09T11:33:15;5.05;;;2.22;;
24681;SDS011;12802;53.390;-2.328;2022-09-09T11:41:06;2.53;;;1.52;;
24681;SDS011;12802;53.390;-2.328;2022-09-09T11:43:52;3.33;;;2.08;;
24681;SDS011;12802;53.390;-2.328;2022-09-09T11:46:39;5.53;;;1.95;;
24681;SDS011;12802;53.390;-2.328;2022-09-09T11:49:21;5.88;;;2.33;;
24681;SDS011;12802;53.390;-2.328;2022-09-09T11:52:36;10.35;;;2.00;;
24681;SDS011;12802;53.390;-2.328;2022-09-09T11:58:02;4.53;;;2.05;;
24681;SDS011;12802;53.390;-2.328;2022-09-09T12:00:46;3.00;;;1.27;;
24681;SDS011;12802;53.390;-2.328;2022-09-09T12:09:06;3.95;;;2.03;;
24681;SDS011;12802;53.390;-2.328;2022-09-09T12:11:36;8.18;;;2.35;;
24681;SDS011;12802;53.390;-2.328;2022-09-09T12:14:02;8.93;;;2.22;;
24681;SDS011;12802;53.390;-2.328;2022-09-09T12:16:33;5.28;;;2.38;;
24681;SDS011;12802;53.390;-2.328;2022-09-09T12:19:33;8.43;;;3.13;;
24681;SDS011;12802;53.390;-2.328;2022-09-09T12:22:01;5.70;;;2.85;;
24681;SDS011;12802;53.390;-2.328;2022-09-09T12:27:46;8.15;;;2.22;;
24681;SDS011;12802;53.390;-2.328;2022-09-09T12:30:22;9.85;;;2.72;;
24681;SDS011;12802;53.390;-2.328;2022-09-09T12:33:07;7.82;;;3.47;;
24681;SDS011;12802;53.390;-2.328;2022-09-09T12:35:36;7.72;;;3.00;;
24681;SDS011;12802;53.390;-2.328;2022-09-09T12:38:03;2.78;;;2.00;;
24681;SDS011;12802;53.390;-2.328;2022-09-09T12:40:33;4.10;;;1.95;;
24681;SDS011;12802;53.390;-2.328;2022-09-09T12:43:20;5.00;;;2.05;;
24681;SDS011;12802;53.390;-2.328;2022-09-09T12:45:48;4.88;;;2.08;;
24681;SDS011;12802;53.390;-2.328;2022-09-09T12:48:16;3.78;;;1.38;;
24681;SDS011;12802;53.390;-2.328;2022-09-09T12:50:46;4.50;;;2.55;;
24681;SDS011;12802;53.390;-2.328;2022-09-09T12:55:59;5.28;;;2.90;;
24681;SDS011;12802;53.390;-2.328;2022-09-09T12:58:32;4.70;;;2.47;;
24681;SDS011;12802;53.390;-2.328;2022-09-09T13:01:00;7.10;;;3.70;;
24681;SDS011;12802;53.390;-2.328;2022-09-09T13:03:29;7.15;;;3.80;;
24681;SDS011;12802;53.390;-2.328;2022-09-09T13:06:10;9.32;;;2.92;;
24681;SDS011;12802;53.390;-2.328;2022-09-09T13:08:37;5.50;;;1.55;;
24681;SDS011;12802;53.390;-2.328;2022-09-09T13:11:06;2.08;;;1.25;;
24681;SDS011;12802;53.390;-2.328;2022-09-09T13:13:36;2.45;;;1.17;;
24681;SDS011;12802;53.390;-2.328;2022-09-09T13:16:07;4.22;;;1.15;;
24681;SDS011;12802;53.390;-2.328;2022-09-09T13:18:45;2.35;;;1.10;;
24681;SDS011;12802;53.390;-2.328;2022-09-09T13:21:11;2.95;;;1.20;;
24681;SDS011;12802;53.390;-2.328;2022-09-09T13:23:38;1.88;;;1.23;;
24681;SDS011;12802;53.390;-2.328;2022-09-09T13:26:05;5.40;;;1.33;;
24681;SDS011;12802;53.390;-2.328;2022-09-09T13:28:51;1.30;;;0.90;;
24681;SDS011;12802;53.390;-2.328;2022-09-09T13:31:23;7.97;;;1.60;;
24681;SDS011;12802;53.390;-2.328;2022-09-09T13:33:58;2.10;;;1.30;;
24681;SDS011;12802;53.390;-2.328;2022-09-09T13:36:30;2.95;;;1.35;;
24681;SDS011;12802;53.390;-2.328;2022-09-09T13:38:58;1.40;;;0.98;;
24681;SDS011;12802;53.390;-2.328;2022-09-09T13:41:28;2.35;;;1.58;;
24681;SDS011;12802;53.390;-2.328;2022-09-09T13:43:57;3.55;;;1.50;;
24681;SDS011;12802;53.390;-2.328;2022-09-09T13:46:32;4.25;;;1.90;;
24681;SDS011;12802;53.390;-2.328;2022-09-09T13:49:02;3.60;;;1.65;;
24681;SDS011;12802;53.390;-2.328;2022-09-09T13:56:34;5.88;;;1.67;;
24681;SDS011;12802;53.390;-2.328;2022-09-09T13:59:01;3.65;;;1.63;;
24681;SDS011;12802;53.390;-2.328;2022-09-09T14:01:29;5.93;;;1.95;;
24681;SDS011;12802;53.390;-2.328;2022-09-09T14:03:55;3.45;;;1.27;;
24681;SDS011;12802;53.390;-2.328;2022-09-09T14:06:21;4.03;;;1.63;;
24681;SDS011;12802;53.390;-2.328;2022-09-09T14:08:47;4.07;;;1.80;;
24681;SDS011;12802;53.390;-2.328;2022-09-09T14:11:17;8.88;;;2.00;;
24681;SDS011;12802;53.390;-2.328;2022-09-09T14:13:43;2.30;;;0.98;;
24681;SDS011;12802;53.390;-2.328;2022-09-09T14:16:09;2.42;;;1.45;;
24681;SDS011;12802;53.390;-2.328;2022-09-09T14:18:35;3.50;;;1.15;;
24681;SDS011;12802;53.390;-2.328;2022-09-09T14:21:03;3.60;;;0.95;;
24681;SDS011;12802;53.390;-2.328;2022-09-09T14:23:28;1.42;;;0.80;;
24681;SDS011;12802;53.390;-2.328;2022-09-09T14:25:54;1.73;;;0.88;;
24681;SDS011;12802;53.390;-2.328;2022-09-09T14:28:21;1.33;;;0.57;;
24681;SDS011;12802;53.390;-2.328;2022-09-09T14:30:47;0.63;;;0.32;;
24681;SDS011;12802;53.390;-2.328;2022-09-09T14:33:13;0.93;;;0.63;;
24681;SDS011;12802;53.390;-2.328;2022-09-09T14:35:40;2.28;;;0.90;;
24681;SDS011;12802;53.390;-2.328;2022-09-09T14:38:08;1.00;;;0.57;;
24681;SDS011;12802;53.390;-2.328;2022-09-09T14:40:34;1.27;;;0.68;;
24681;SDS011;12802;53.390;-2.328;2022-09-09T14:43:02;2.55;;;0.70;;
24681;SDS011;12802;53.390;-2.328;2022-09-09T14:45:28;1.67;;;0.50;;
24681;SDS011;12802;53.390;-2.328;2022-09-09T14:47:54;4.85;;;0.77;;
24681;SDS011;12802;53.390;-2.328;2022-09-09T14:50:21;1.20;;;0.60;;
24681;SDS011;12802;53.390;-2.328;2022-09-09T14:52:48;2.50;;;0.75;;
24681;SDS011;12802;53.390;-2.328;2022-09-09T14:55:14;0.75;;;0.55;;
24681;SDS011;12802;53.390;-2.328;2022-09-09T14:57:40;0.65;;;0.43;;
24681;SDS011;12802;53.390;-2.328;2022-09-09T15:00:07;0.63;;;0.40;;
24681;SDS011;12802;53.390;-2.328;2022-09-09T15:02:34;1.50;;;0.50;;
24681;SDS011;12802;53.390;-2.328;2022-09-09T15:05:00;0.73;;;0.52;;
24681;SDS011;12802;53.390;-2.328;2022-09-09T15:07:26;0.35;;;0.28;;
24681;SDS011;12802;53.390;-2.328;2022-09-09T15:09:53;0.73;;;0.50;;
24681;SDS011;12802;53.390;-2.328;2022-09-09T15:12:19;0.95;;;0.55;;
24681;SDS011;12802;53.390;-2.328;2022-09-09T15:14:46;0.55;;;0.30;;
24681;SDS011;12802;53.390;-2.328;2022-09-09T15:17:13;2.42;;;0.45;;
24681;SDS011;12802;53.390;-2.328;2022-09-09T15:19:39;2.53;;;0.60;;
24681;SDS011;12802;53.390;-2.328;2022-09-09T15:22:07;0.98;;;0.47;;
24681;SDS011;12802;53.390;-2.328;2022-09-09T15:24:33;5.72;;;0.82;;
24681;SDS011;12802;53.390;-2.328;2022-09-09T15:27:00;0.98;;;0.47;;
24681;SDS011;12802;53.390;-2.328;2022-09-09T15:29:27;1.33;;;0.90;;
24681;SDS011;12802;53.390;-2.328;2022-09-09T15:31:53;2.15;;;1.00;;
24681;SDS011;12802;53.390;-2.328;2022-09-09T15:34:20;2.97;;;0.73;;
24681;SDS011;12802;53.390;-2.328;2022-09-09T15:36:46;1.40;;;0.52;;
24681;SDS011;12802;53.390;-2.328;2022-09-09T15:39:12;1.92;;;0.95;;
24681;SDS011;12802;53.390;-2.328;2022-09-09T15:41:42;1.45;;;0.80;;
24681;SDS011;12802;53.390;-2.328;2022-09-09T15:44:09;1.30;;;0.40;;
24681;SDS011;12802;53.390;-2.328;2022-09-09T15:46:38;2.03;;;1.10;;
24681;SDS011;12802;53.390;-2.328;2022-09-09T15:49:12;1.45;;;0.65;;
24681;SDS011;12802;53.390;-2.328;2022-09-09T15:51:44;3.80;;;0.63;;
24681;SDS011;12802;53.390;-2.328;2022-09-09T15:54:13;0.88;;;0.47;;
24681;SDS011;12802;53.390;-2.328;2022-09-09T15:56:41;1.48;;;0.80;;
24681;SDS011;12802;53.390;-2.328;2022-09-09T15:59:08;2.47;;;0.82;;
24681;SDS011;12802;53.390;-2.328;2022-09-09T16:01:34;2.28;;;0.52;;
24681;SDS011;12802;53.390;-2.328;2022-09-09T16:04:00;2.20;;;0.70;;
24681;SDS011;12802;53.390;-2.328;2022-09-09T16:06:27;2.55;;;0.80;;
24681;SDS011;12802;53.390;-2.328;2022-09-09T16:08:54;2.60;;;1.08;;
24681;SDS011;12802;53.390;-2.328;2022-09-09T16:11:23;1.58;;;0.85;;
24681;SDS011;12802;53.390;-2.328;2022-09-09T16:13:57;1.13;;;0.50;;
24681;SDS011;12802;53.390;-2.328;2022-09-09T16:16:24;1.30;;;0.60;;
24681;SDS011;12802;53.390;-2.328;2022-09-09T16:18:56;0.77;;;0.50;;
24681;SDS011;12802;53.390;-2.328;2022-09-09T16:23:53;1.83;;;0.55;;
24681;SDS011;12802;53.390;-2.328;2022-09-09T16:26:19;5.90;;;0.95;;
24681;SDS011;12802;53.390;-2.328;2022-09-09T16:28:45;1.08;;;0.68;;
24681;SDS011;12802;53.390;-2.328;2022-09-09T16:31:16;1.27;;;0.82;;
24681;SDS011;12802;53.390;-2.328;2022-09-09T16:33:43;1.23;;;0.65;;
24681;SDS011;12802;53.390;-2.328;2022-09-09T16:36:14;0.40;;;0.30;;
24681;SDS011;12802;53.390;-2.328;2022-09-09T16:38:41;2.03;;;0.50;;
24681;SDS011;12802;53.390;-2.328;2022-09-09T16:41:11;1.88;;;1.00;;
24681;SDS011;12802;53.390;-2.328;2022-09-09T16:43:38;4.07;;;0.45;;
24681;SDS011;12802;53.390;-2.328;2022-09-09T16:46:18;3.03;;;0.63;;
24681;SDS011;12802;53.390;-2.328;2022-09-09T16:48:45;3.47;;;0.73;;
24681;SDS011;12802;53.390;-2.328;2022-09-09T16:51:13;0.95;;;0.60;;
24681;SDS011;12802;53.390;-2.328;2022-09-09T16:53:42;1.45;;;0.65;;
24681;SDS011;12802;53.390;-2.328;2022-09-09T16:56:11;1.30;;;0.95;;
24681;SDS011;12802;53.390;-2.328;2022-09-09T16:58:42;1.27;;;0.85;;
24681;SDS011;12802;53.390;-2.328;2022-09-09T17:01:08;2.20;;;0.80;;
24681;SDS011;12802;53.390;-2.328;2022-09-09T17:03:36;1.00;;;0.70;;
24681;SDS011;12802;53.390;-2.328;2022-09-09T17:06:02;2.00;;;0.88;;
24681;SDS011;12802;53.390;-2.328;2022-09-09T17:08:33;3.33;;;0.75;;
24681;SDS011;12802;53.390;-2.328;2022-09-09T17:10:59;2.58;;;0.88;;
24681;SDS011;12802;53.390;-2.328;2022-09-09T17:13:24;3.20;;;0.68;;
24681;SDS011;12802;53.390;-2.328;2022-09-09T17:15:50;2.20;;;0.55;;
24681;SDS011;12802;53.390;-2.328;2022-09-09T17:18:16;0.77;;;0.60;;
24681;SDS011;12802;53.390;-2.328;2022-09-09T17:20:42;1.65;;;0.40;;
24681;SDS011;12802;53.390;-2.328;2022-09-09T17:23:09;0.90;;;0.45;;
24681;SDS011;12802;53.390;-2.328;2022-09-09T17:25:36;1.10;;;0.50;;